メインページ
METAR-TAF:

METAR-TAF

空港 :

ゴルガーン, イラン

緯度: 36-49N, 経度: 054-28E, 海抜: 155m

現時点の気象観測

当レポートは24分前の18:00(UTC)に作成
無風
気温 8°C
湿度 93%
気圧 1032 hPa
視程10km以上
高度4000ftの雲はほとんどない
高度8000ftの曇り

METAR: OING 171800Z 00000KT 9999 FEW040 OVC080 08/07 Q1032

時間: 21:54 (18:24 UTC)


TAF: 見つかりません

4,000以上の空港の気象観測と天気予報(METAR報とTAF報)

利用可能な観測所は地図上に黄色い丸と赤い丸で示す。

丸の上にカーソルを重ねると観測所名を参照できる。

次にクリックすると気象観測と天気予報を参照できる。

マップの切り替え:黒色「×」印の緑ボタンをクリックして拡大、「-」印の緑ボタンをクリックして縮小、緑色の三角印をクリックして隣りの地図に切り替え


METAR-TAF: